Liversedge, United Kingdom
Current Conditions -  °F | °C
As of 3:20 AM on Tuesday 27 Jan 2015 (Local Time) from EGNM Reporting Station
Scattered Clouds Scattered Clouds  
Wind Chill: 32°   Ceiling: Unl
Heat Index: 39°   Visibility: 6mi
Dew Point: 37°   Wind: 10mph
Humidity: 93%   Direction: 280°W
Pressure: 30.3"   Gusts: NA
Location:  53.71°N, 1.68°W
Report Text: EGNM 270320Z 28009KT 240V310 9999 SCT012 04/03 Q1026
Loading
Personal Weather Stations






























Interactive Weather Map New forecast layout! Learn more

10-Day Weather Forecast

Advertisements
Track Severe Weather on mobile